sensor_id;sensor_type;location;lat;lon;timestamp;temperature;humidity
18450;DHT22;9354;50.194;7.690;2022-10-28T00:02:21;16.00;99.90
18450;DHT22;9354;50.194;7.690;2022-10-28T00:04:48;16.00;99.90
18450;DHT22;9354;50.194;7.690;2022-10-28T00:07:16;16.00;99.90
18450;DHT22;9354;50.194;7.690;2022-10-28T00:09:43;16.00;99.90
18450;DHT22;9354;50.194;7.690;2022-10-28T00:12:10;16.00;99.90
18450;DHT22;9354;50.194;7.690;2022-10-28T00:14:38;16.00;99.90
18450;DHT22;9354;50.194;7.690;2022-10-28T00:17:07;16.10;99.90
18450;DHT22;9354;50.194;7.690;2022-10-28T00:19:34;16.10;99.90
18450;DHT22;9354;50.194;7.690;2022-10-28T00:22:01;16.10;99.90
18450;DHT22;9354;50.194;7.690;2022-10-28T00:24:29;16.10;99.90
18450;DHT22;9354;50.194;7.690;2022-10-28T00:26:56;16.10;99.90
18450;DHT22;9354;50.194;7.690;2022-10-28T00:29:23;16.10;99.90
18450;DHT22;9354;50.194;7.690;2022-10-28T00:31:51;16.10;99.90
18450;DHT22;9354;50.194;7.690;2022-10-28T00:34:20;16.10;99.90
18450;DHT22;9354;50.194;7.690;2022-10-28T00:36:47;16.10;99.90
18450;DHT22;9354;50.194;7.690;2022-10-28T00:39:16;16.10;99.90
18450;DHT22;9354;50.194;7.690;2022-10-28T00:41:45;16.20;99.90
18450;DHT22;9354;50.194;7.690;2022-10-28T00:44:54;16.20;99.90
18450;DHT22;9354;50.194;7.690;2022-10-28T00:47:29;16.20;99.90
18450;DHT22;9354;50.194;7.690;2022-10-28T00:50:05;16.30;99.90
18450;DHT22;9354;50.194;7.690;2022-10-28T00:52:33;16.30;99.90
18450;DHT22;9354;50.194;7.690;2022-10-28T00:55:02;16.30;99.90
18450;DHT22;9354;50.194;7.690;2022-10-28T00:57:32;16.30;99.90
18450;DHT22;9354;50.194;7.690;2022-10-28T01:00:04;16.30;99.90
18450;DHT22;9354;50.194;7.690;2022-10-28T01:02:36;16.30;99.90
18450;DHT22;9354;50.194;7.690;2022-10-28T01:05:10;16.30;99.90
18450;DHT22;9354;50.194;7.690;2022-10-28T01:07:38;16.40;99.90
18450;DHT22;9354;50.194;7.690;2022-10-28T01:10:06;16.40;99.90
18450;DHT22;9354;50.194;7.690;2022-10-28T01:12:40;16.40;99.90
18450;DHT22;9354;50.194;7.690;2022-10-28T01:15:19;16.40;99.90
18450;DHT22;9354;50.194;7.690;2022-10-28T01:17:55;16.40;99.90
18450;DHT22;9354;50.194;7.690;2022-10-28T01:20:51;16.40;99.90
18450;DHT22;9354;50.194;7.690;2022-10-28T01:23:30;16.40;99.90
18450;DHT22;9354;50.194;7.690;2022-10-28T01:26:23;16.40;99.90
18450;DHT22;9354;50.194;7.690;2022-10-28T01:31:49;16.50;99.90
18450;DHT22;9354;50.194;7.690;2022-10-28T01:34:21;16.50;99.90
18450;DHT22;9354;50.194;7.690;2022-10-28T01:36:56;16.50;99.90
18450;DHT22;9354;50.194;7.690;2022-10-28T01:39:30;16.50;99.90
18450;DHT22;9354;50.194;7.690;2022-10-28T01:42:06;16.60;99.90
18450;DHT22;9354;50.194;7.690;2022-10-28T01:44:42;16.60;99.90
18450;DHT22;9354;50.194;7.690;2022-10-28T01:47:15;16.60;99.90
18450;DHT22;9354;50.194;7.690;2022-10-28T01:49:48;16.60;99.90
18450;DHT22;9354;50.194;7.690;2022-10-28T01:52:21;16.60;99.90
18450;DHT22;9354;50.194;7.690;2022-10-28T01:54:53;16.60;99.90
18450;DHT22;9354;50.194;7.690;2022-10-28T01:57:24;16.60;99.90
18450;DHT22;9354;50.194;7.690;2022-10-28T01:59:54;16.70;99.90
18450;DHT22;9354;50.194;7.690;2022-10-28T02:02:24;16.70;99.90
18450;DHT22;9354;50.194;7.690;2022-10-28T02:05:05;16.70;99.90
18450;DHT22;9354;50.194;7.690;2022-10-28T02:07:32;16.70;99.90
18450;DHT22;9354;50.194;7.690;2022-10-28T02:10:05;16.70;99.90
18450;DHT22;9354;50.194;7.690;2022-10-28T02:12:39;16.70;99.90
18450;DHT22;9354;50.194;7.690;2022-10-28T02:15:24;16.70;99.90
18450;DHT22;9354;50.194;7.690;2022-10-28T02:18:13;16.70;99.90
18450;DHT22;9354;50.194;7.690;2022-10-28T02:20:50;16.70;99.90
18450;DHT22;9354;50.194;7.690;2022-10-28T02:23:27;16.70;99.90
18450;DHT22;9354;50.194;7.690;2022-10-28T02:26:01;16.70;99.90
18450;DHT22;9354;50.194;7.690;2022-10-28T02:28:38;16.70;99.90
18450;DHT22;9354;50.194;7.690;2022-10-28T02:31:13;16.70;99.90
18450;DHT22;9354;50.194;7.690;2022-10-28T02:33:47;16.70;99.90
18450;DHT22;9354;50.194;7.690;2022-10-28T02:36:18;16.60;99.90
18450;DHT22;9354;50.194;7.690;2022-10-28T02:38:48;16.60;99.90
18450;DHT22;9354;50.194;7.690;2022-10-28T02:41:20;16.60;99.90
18450;DHT22;9354;50.194;7.690;2022-10-28T02:43:53;16.60;99.90
18450;DHT22;9354;50.194;7.690;2022-10-28T02:46:22;16.70;99.90
18450;DHT22;9354;50.194;7.690;2022-10-28T02:48:57;16.70;99.90
18450;DHT22;9354;50.194;7.690;2022-10-28T02:51:30;16.80;99.90
18450;DHT22;9354;50.194;7.690;2022-10-28T02:54:05;16.80;99.90
18450;DHT22;9354;50.194;7.690;2022-10-28T02:56:36;16.90;99.90
18450;DHT22;9354;50.194;7.690;2022-10-28T02:59:08;16.90;99.90
18450;DHT22;9354;50.194;7.690;2022-10-28T03:01:36;16.90;99.90
18450;DHT22;9354;50.194;7.690;2022-10-28T03:04:05;16.90;99.90
18450;DHT22;9354;50.194;7.690;2022-10-28T03:06:33;16.90;99.90
18450;DHT22;9354;50.194;7.690;2022-10-28T03:09:00;16.90;99.90
18450;DHT22;9354;50.194;7.690;2022-10-28T03:11:27;17.00;99.90
18450;DHT22;9354;50.194;7.690;2022-10-28T03:13:55;17.00;99.90
18450;DHT22;9354;50.194;7.690;2022-10-28T03:16:22;17.00;99.90
18450;DHT22;9354;50.194;7.690;2022-10-28T03:18:51;16.90;99.90
18450;DHT22;9354;50.194;7.690;2022-10-28T03:21:20;16.90;99.90
18450;DHT22;9354;50.194;7.690;2022-10-28T03:23:48;16.80;99.90
18450;DHT22;9354;50.194;7.690;2022-10-28T03:26:15;16.80;99.90
18450;DHT22;9354;50.194;7.690;2022-10-28T03:28:43;16.80;99.90
18450;DHT22;9354;50.194;7.690;2022-10-28T03:31:10;16.80;99.90
18450;DHT22;9354;50.194;7.690;2022-10-28T03:33:38;16.80;99.90
18450;DHT22;9354;50.194;7.690;2022-10-28T03:36:06;16.80;99.90
18450;DHT22;9354;50.194;7.690;2022-10-28T03:38:35;16.70;99.90
18450;DHT22;9354;50.194;7.690;2022-10-28T03:41:02;16.70;99.90
18450;DHT22;9354;50.194;7.690;2022-10-28T03:43:30;16.70;99.90
18450;DHT22;9354;50.194;7.690;2022-10-28T03:45:57;16.70;99.90
18450;DHT22;9354;50.194;7.690;2022-10-28T03:48:25;16.70;99.90
18450;DHT22;9354;50.194;7.690;2022-10-28T03:50:52;16.70;99.90
18450;DHT22;9354;50.194;7.690;2022-10-28T03:53:20;16.60;99.90
18450;DHT22;9354;50.194;7.690;2022-10-28T03:55:52;16.60;99.90
18450;DHT22;9354;50.194;7.690;2022-10-28T03:58:19;16.60;99.90
18450;DHT22;9354;50.194;7.690;2022-10-28T04:00:47;16.60;99.90
18450;DHT22;9354;50.194;7.690;2022-10-28T04:03:15;16.50;99.90
18450;DHT22;9354;50.194;7.690;2022-10-28T04:05:42;16.60;99.90
18450;DHT22;9354;50.194;7.690;2022-10-28T04:08:10;16.60;99.90
18450;DHT22;9354;50.194;7.690;2022-10-28T04:10:38;16.60;99.90
18450;DHT22;9354;50.194;7.690;2022-10-28T04:13:06;16.60;99.90
18450;DHT22;9354;50.194;7.690;2022-10-28T04:15:34;16.60;99.90
18450;DHT22;9354;50.194;7.690;2022-10-28T04:18:02;16.50;99.90
18450;DHT22;9354;50.194;7.690;2022-10-28T04:20:30;16.50;99.90
18450;DHT22;9354;50.194;7.690;2022-10-28T04:22:57;16.50;99.90
18450;DHT22;9354;50.194;7.690;2022-10-28T04:25:26;16.50;99.90
18450;DHT22;9354;50.194;7.690;2022-10-28T04:27:53;16.50;99.90
18450;DHT22;9354;50.194;7.690;2022-10-28T04:30:23;16.50;99.90
18450;DHT22;9354;50.194;7.690;2022-10-28T04:32:50;16.50;99.90
18450;DHT22;9354;50.194;7.690;2022-10-28T04:35:18;16.40;99.90
18450;DHT22;9354;50.194;7.690;2022-10-28T04:37:45;16.40;99.90
18450;DHT22;9354;50.194;7.690;2022-10-28T04:40:13;16.40;99.90
18450;DHT22;9354;50.194;7.690;2022-10-28T04:42:40;16.40;99.90
18450;DHT22;9354;50.194;7.690;2022-10-28T04:45:08;16.40;99.90
18450;DHT22;9354;50.194;7.690;2022-10-28T04:47:37;16.40;99.90
18450;DHT22;9354;50.194;7.690;2022-10-28T04:50:05;16.40;99.90
18450;DHT22;9354;50.194;7.690;2022-10-28T04:52:33;16.40;99.90
18450;DHT22;9354;50.194;7.690;2022-10-28T04:55:00;16.40;99.90
18450;DHT22;9354;50.194;7.690;2022-10-28T04:57:28;16.30;99.90
18450;DHT22;9354;50.194;7.690;2022-10-28T04:59:55;16.30;99.90
18450;DHT22;9354;50.194;7.690;2022-10-28T05:02:22;16.20;99.90
18450;DHT22;9354;50.194;7.690;2022-10-28T05:04:51;16.20;99.90
18450;DHT22;9354;50.194;7.690;2022-10-28T05:07:19;16.20;99.90
18450;DHT22;9354;50.194;7.690;2022-10-28T05:09:46;16.20;99.90
18450;DHT22;9354;50.194;7.690;2022-10-28T05:12:13;16.20;99.90
18450;DHT22;9354;50.194;7.690;2022-10-28T05:14:41;16.20;99.90
18450;DHT22;9354;50.194;7.690;2022-10-28T05:17:09;16.20;99.90
18450;DHT22;9354;50.194;7.690;2022-10-28T05:19:37;16.20;99.90
18450;DHT22;9354;50.194;7.690;2022-10-28T05:22:06;16.20;99.90
18450;DHT22;9354;50.194;7.690;2022-10-28T05:24:33;16.10;99.90
18450;DHT22;9354;50.194;7.690;2022-10-28T05:27:00;16.10;99.90
18450;DHT22;9354;50.194;7.690;2022-10-28T05:29:28;16.10;99.90
18450;DHT22;9354;50.194;7.690;2022-10-28T05:31:55;16.10;99.90
18450;DHT22;9354;50.194;7.690;2022-10-28T05:34:22;16.00;99.90
18450;DHT22;9354;50.194;7.690;2022-10-28T05:36:50;16.00;99.90
18450;DHT22;9354;50.194;7.690;2022-10-28T05:39:19;16.00;99.90
18450;DHT22;9354;50.194;7.690;2022-10-28T05:41:46;16.00;99.90
18450;DHT22;9354;50.194;7.690;2022-10-28T05:44:13;16.00;99.90
18450;DHT22;9354;50.194;7.690;2022-10-28T05:46:41;16.00;99.90
18450;DHT22;9354;50.194;7.690;2022-10-28T05:49:08;16.00;99.90
18450;DHT22;9354;50.194;7.690;2022-10-28T05:51:35;16.00;99.90
18450;DHT22;9354;50.194;7.690;2022-10-28T05:54:03;16.00;99.90
18450;DHT22;9354;50.194;7.690;2022-10-28T05:56:32;16.10;99.90
18450;DHT22;9354;50.194;7.690;2022-10-28T05:58:59;16.10;99.90
18450;DHT22;9354;50.194;7.690;2022-10-28T06:01:27;16.10;99.90
18450;DHT22;9354;50.194;7.690;2022-10-28T06:03:54;16.20;99.90
18450;DHT22;9354;50.194;7.690;2022-10-28T06:06:21;16.10;99.90
18450;DHT22;9354;50.194;7.690;2022-10-28T06:08:49;16.20;99.90
18450;DHT22;9354;50.194;7.690;2022-10-28T06:11:16;16.20;99.90
18450;DHT22;9354;50.194;7.690;2022-10-28T06:13:45;16.10;99.90
18450;DHT22;9354;50.194;7.690;2022-10-28T06:16:12;16.10;99.90
18450;DHT22;9354;50.194;7.690;2022-10-28T06:18:40;16.10;99.90
18450;DHT22;9354;50.194;7.690;2022-10-28T06:21:07;16.00;99.90
18450;DHT22;9354;50.194;7.690;2022-10-28T06:23:34;16.00;99.90
18450;DHT22;9354;50.194;7.690;2022-10-28T06:26:03;16.00;99.90
18450;DHT22;9354;50.194;7.690;2022-10-28T06:28:31;15.90;99.90
18450;DHT22;9354;50.194;7.690;2022-10-28T06:31:03;15.90;99.90
18450;DHT22;9354;50.194;7.690;2022-10-28T06:33:30;15.90;99.90
18450;DHT22;9354;50.194;7.690;2022-10-28T06:35:59;15.90;99.90
18450;DHT22;9354;50.194;7.690;2022-10-28T06:38:27;15.90;99.90
18450;DHT22;9354;50.194;7.690;2022-10-28T06:40:56;16.00;99.90
18450;DHT22;9354;50.194;7.690;2022-10-28T06:43:24;15.90;99.90
18450;DHT22;9354;50.194;7.690;2022-10-28T06:45:52;16.00;99.90
18450;DHT22;9354;50.194;7.690;2022-10-28T06:48:23;16.00;99.90
18450;DHT22;9354;50.194;7.690;2022-10-28T06:50:54;16.00;99.90
18450;DHT22;9354;50.194;7.690;2022-10-28T06:53:23;16.00;99.90
18450;DHT22;9354;50.194;7.690;2022-10-28T06:55:54;16.00;99.90
18450;DHT22;9354;50.194;7.690;2022-10-28T06:58:21;15.90;99.90
18450;DHT22;9354;50.194;7.690;2022-10-28T07:00:49;16.00;99.90
18450;DHT22;9354;50.194;7.690;2022-10-28T07:03:17;16.00;99.90
18450;DHT22;9354;50.194;7.690;2022-10-28T07:05:46;16.00;99.90
18450;DHT22;9354;50.194;7.690;2022-10-28T07:08:16;16.00;99.90
18450;DHT22;9354;50.194;7.690;2022-10-28T07:10:43;16.00;99.90
18450;DHT22;9354;50.194;7.690;2022-10-28T07:13:18;16.00;99.90
18450;DHT22;9354;50.194;7.690;2022-10-28T07:15:50;16.00;99.90
18450;DHT22;9354;50.194;7.690;2022-10-28T07:18:18;16.00;99.90
18450;DHT22;9354;50.194;7.690;2022-10-28T07:20:46;16.00;99.90
18450;DHT22;9354;50.194;7.690;2022-10-28T07:23:14;15.90;99.90
18450;DHT22;9354;50.194;7.690;2022-10-28T07:25:42;15.90;99.90
18450;DHT22;9354;50.194;7.690;2022-10-28T07:28:10;15.90;99.90
18450;DHT22;9354;50.194;7.690;2022-10-28T07:30:38;15.90;99.90
18450;DHT22;9354;50.194;7.690;2022-10-28T07:33:05;15.90;99.90
18450;DHT22;9354;50.194;7.690;2022-10-28T07:35:32;16.00;99.90
18450;DHT22;9354;50.194;7.690;2022-10-28T07:38:01;16.00;99.90
18450;DHT22;9354;50.194;7.690;2022-10-28T07:40:28;16.00;99.90
18450;DHT22;9354;50.194;7.690;2022-10-28T07:42:57;16.00;99.90
18450;DHT22;9354;50.194;7.690;2022-10-28T07:45:24;16.00;99.90
18450;DHT22;9354;50.194;7.690;2022-10-28T07:47:52;16.00;99.90
18450;DHT22;9354;50.194;7.690;2022-10-28T07:50:19;16.00;99.90
18450;DHT22;9354;50.194;7.690;2022-10-28T07:52:47;16.10;99.90
18450;DHT22;9354;50.194;7.690;2022-10-28T07:55:16;16.10;99.90
18450;DHT22;9354;50.194;7.690;2022-10-28T07:57:46;16.10;99.90
18450;DHT22;9354;50.194;7.690;2022-10-28T08:00:14;16.20;99.90
18450;DHT22;9354;50.194;7.690;2022-10-28T08:02:41;16.20;99.90
18450;DHT22;9354;50.194;7.690;2022-10-28T08:05:09;16.20;99.90
18450;DHT22;9354;50.194;7.690;2022-10-28T08:07:36;16.20;99.90
18450;DHT22;9354;50.194;7.690;2022-10-28T08:10:05;16.30;99.90
18450;DHT22;9354;50.194;7.690;2022-10-28T08:12:34;16.30;99.90
18450;DHT22;9354;50.194;7.690;2022-10-28T08:15:01;16.40;99.90
18450;DHT22;9354;50.194;7.690;2022-10-28T08:17:28;16.40;99.90
18450;DHT22;9354;50.194;7.690;2022-10-28T08:19:56;16.40;99.90
18450;DHT22;9354;50.194;7.690;2022-10-28T08:22:23;16.50;99.90
18450;DHT22;9354;50.194;7.690;2022-10-28T08:24:50;16.50;99.90
18450;DHT22;9354;50.194;7.690;2022-10-28T08:27:18;16.60;99.90
18450;DHT22;9354;50.194;7.690;2022-10-28T08:29:47;16.60;99.90
18450;DHT22;9354;50.194;7.690;2022-10-28T08:32:14;16.60;99.90
18450;DHT22;9354;50.194;7.690;2022-10-28T08:34:41;16.70;99.90
18450;DHT22;9354;50.194;7.690;2022-10-28T08:37:09;16.70;99.90
18450;DHT22;9354;50.194;7.690;2022-10-28T08:39:36;16.80;99.90
18450;DHT22;9354;50.194;7.690;2022-10-28T08:42:17;16.80;99.90
18450;DHT22;9354;50.194;7.690;2022-10-28T08:47:47;17.00;99.90
18450;DHT22;9354;50.194;7.690;2022-10-28T08:50:21;17.00;99.90
18450;DHT22;9354;50.194;7.690;2022-10-28T08:52:54;17.10;99.90
18450;DHT22;9354;50.194;7.690;2022-10-28T08:55:25;17.30;99.90
18450;DHT22;9354;50.194;7.690;2022-10-28T08:57:56;17.50;99.90
18450;DHT22;9354;50.194;7.690;2022-10-28T09:00:28;17.70;99.90
18450;DHT22;9354;50.194;7.690;2022-10-28T09:03:15;17.90;99.90
18450;DHT22;9354;50.194;7.690;2022-10-28T09:05:47;18.00;99.90
18450;DHT22;9354;50.194;7.690;2022-10-28T09:08:21;18.20;99.90
18450;DHT22;9354;50.194;7.690;2022-10-28T09:13:49;18.40;99.90
18450;DHT22;9354;50.194;7.690;2022-10-28T09:16:27;18.50;99.90
18450;DHT22;9354;50.194;7.690;2022-10-28T09:19:03;18.60;99.90
18450;DHT22;9354;50.194;7.690;2022-10-28T09:21:39;18.70;99.90
18450;DHT22;9354;50.194;7.690;2022-10-28T09:24:14;18.70;99.90
18450;DHT22;9354;50.194;7.690;2022-10-28T09:26:49;18.70;99.90
18450;DHT22;9354;50.194;7.690;2022-10-28T09:29:27;18.60;99.90
18450;DHT22;9354;50.194;7.690;2022-10-28T09:32:02;18.50;99.90
18450;DHT22;9354;50.194;7.690;2022-10-28T09:34:37;18.50;99.90
18450;DHT22;9354;50.194;7.690;2022-10-28T09:37:13;18.50;99.90
18450;DHT22;9354;50.194;7.690;2022-10-28T09:39:43;18.50;99.90
18450;DHT22;9354;50.194;7.690;2022-10-28T09:42:15;18.40;99.90
18450;DHT22;9354;50.194;7.690;2022-10-28T09:44:47;18.40;99.90
18450;DHT22;9354;50.194;7.690;2022-10-28T09:47:21;18.50;99.90
18450;DHT22;9354;50.194;7.690;2022-10-28T09:49:51;18.50;99.90
18450;DHT22;9354;50.194;7.690;2022-10-28T09:52:22;18.70;99.90
18450;DHT22;9354;50.194;7.690;2022-10-28T09:54:52;18.80;99.90
18450;DHT22;9354;50.194;7.690;2022-10-28T09:57:29;18.80;99.90
18450;DHT22;9354;50.194;7.690;2022-10-28T09:59:58;18.90;99.90
18450;DHT22;9354;50.194;7.690;2022-10-28T10:02:29;18.90;99.90
18450;DHT22;9354;50.194;7.690;2022-10-28T10:04:58;18.90;99.90
18450;DHT22;9354;50.194;7.690;2022-10-28T10:07:33;19.00;99.90
18450;DHT22;9354;50.194;7.690;2022-10-28T10:10:06;19.10;99.90
18450;DHT22;9354;50.194;7.690;2022-10-28T10:12:38;19.10;99.90
18450;DHT22;9354;50.194;7.690;2022-10-28T10:15:07;19.20;99.90
18450;DHT22;9354;50.194;7.690;2022-10-28T10:17:42;19.30;99.90
18450;DHT22;9354;50.194;7.690;2022-10-28T10:20:12;19.40;99.90
18450;DHT22;9354;50.194;7.690;2022-10-28T10:22:41;19.50;99.90
18450;DHT22;9354;50.194;7.690;2022-10-28T10:25:29;19.60;99.90
18450;DHT22;9354;50.194;7.690;2022-10-28T10:27:59;19.70;99.90
18450;DHT22;9354;50.194;7.690;2022-10-28T10:30:30;19.80;99.90
18450;DHT22;9354;50.194;7.690;2022-10-28T10:33:00;19.90;99.90
18450;DHT22;9354;50.194;7.690;2022-10-28T10:35:30;20.00;99.90
18450;DHT22;9354;50.194;7.690;2022-10-28T10:37:59;20.10;99.90
18450;DHT22;9354;50.194;7.690;2022-10-28T10:40:29;20.10;99.90
18450;DHT22;9354;50.194;7.690;2022-10-28T10:43:18;20.10;99.90
18450;DHT22;9354;50.194;7.690;2022-10-28T10:45:51;20.10;99.90
18450;DHT22;9354;50.194;7.690;2022-10-28T10:48:21;20.10;99.90
18450;DHT22;9354;50.194;7.690;2022-10-28T10:50:49;20.20;99.90
18450;DHT22;9354;50.194;7.690;2022-10-28T10:53:22;20.20;99.90
18450;DHT22;9354;50.194;7.690;2022-10-28T10:55:53;20.30;99.90
18450;DHT22;9354;50.194;7.690;2022-10-28T10:58:23;20.30;99.90
18450;DHT22;9354;50.194;7.690;2022-10-28T11:00:53;20.30;99.90
18450;DHT22;9354;50.194;7.690;2022-10-28T11:03:25;20.40;99.90
18450;DHT22;9354;50.194;7.690;2022-10-28T11:05:55;20.50;99.90
18450;DHT22;9354;50.194;7.690;2022-10-28T11:08:31;20.60;99.90
18450;DHT22;9354;50.194;7.690;2022-10-28T11:11:04;20.80;99.90
18450;DHT22;9354;50.194;7.690;2022-10-28T11:13:33;20.90;99.90
18450;DHT22;9354;50.194;7.690;2022-10-28T11:16:02;21.00;99.90
18450;DHT22;9354;50.194;7.690;2022-10-28T11:18:40;21.20;99.90
18450;DHT22;9354;50.194;7.690;2022-10-28T11:21:18;21.30;99.90
18450;DHT22;9354;50.194;7.690;2022-10-28T11:23:58;21.40;99.90
18450;DHT22;9354;50.194;7.690;2022-10-28T11:26:28;21.40;99.90
18450;DHT22;9354;50.194;7.690;2022-10-28T11:29:07;21.40;99.90
18450;DHT22;9354;50.194;7.690;2022-10-28T11:31:52;21.40;99.90
18450;DHT22;9354;50.194;7.690;2022-10-28T11:34:36;21.40;99.90
18450;DHT22;9354;50.194;7.690;2022-10-28T11:37:14;21.40;99.90
18450;DHT22;9354;50.194;7.690;2022-10-28T11:39:52;21.40;99.90
18450;DHT22;9354;50.194;7.690;2022-10-28T11:42:29;21.40;99.90
18450;DHT22;9354;50.194;7.690;2022-10-28T11:45:05;21.50;99.90
18450;DHT22;9354;50.194;7.690;2022-10-28T11:47:55;21.60;99.90
18450;DHT22;9354;50.194;7.690;2022-10-28T11:50:40;21.70;99.90
18450;DHT22;9354;50.194;7.690;2022-10-28T11:53:33;21.80;99.90
18450;DHT22;9354;50.194;7.690;2022-10-28T11:56:07;21.80;99.90
18450;DHT22;9354;50.194;7.690;2022-10-28T11:58:45;21.90;99.90
18450;DHT22;9354;50.194;7.690;2022-10-28T12:01:26;21.90;99.90
18450;DHT22;9354;50.194;7.690;2022-10-28T12:04:07;22.00;99.90
18450;DHT22;9354;50.194;7.690;2022-10-28T12:07:01;22.00;99.90
18450;DHT22;9354;50.194;7.690;2022-10-28T12:09:40;22.10;99.90
18450;DHT22;9354;50.194;7.690;2022-10-28T12:12:16;22.10;99.90
18450;DHT22;9354;50.194;7.690;2022-10-28T12:14:56;22.10;99.90
18450;DHT22;9354;50.194;7.690;2022-10-28T12:17:30;22.10;99.90
18450;DHT22;9354;50.194;7.690;2022-10-28T12:20:04;22.10;99.90
18450;DHT22;9354;50.194;7.690;2022-10-28T12:22:45;22.10;99.90
18450;DHT22;9354;50.194;7.690;2022-10-28T12:25:16;22.00;99.90
18450;DHT22;9354;50.194;7.690;2022-10-28T12:27:46;22.00;99.90
18450;DHT22;9354;50.194;7.690;2022-10-28T12:30:19;21.90;99.90
18450;DHT22;9354;50.194;7.690;2022-10-28T12:32:52;22.00;99.90
18450;DHT22;9354;50.194;7.690;2022-10-28T12:35:23;22.10;99.90
18450;DHT22;9354;50.194;7.690;2022-10-28T12:37:57;22.20;99.90
18450;DHT22;9354;50.194;7.690;2022-10-28T12:40:30;22.20;99.90
18450;DHT22;9354;50.194;7.690;2022-10-28T12:43:05;22.30;99.90
18450;DHT22;9354;50.194;7.690;2022-10-28T12:45:37;22.40;99.90
18450;DHT22;9354;50.194;7.690;2022-10-28T12:48:12;22.50;99.90
18450;DHT22;9354;50.194;7.690;2022-10-28T12:50:45;22.70;99.90
18450;DHT22;9354;50.194;7.690;2022-10-28T12:53:27;22.90;99.90
18450;DHT22;9354;50.194;7.690;2022-10-28T12:55:58;23.10;99.90
18450;DHT22;9354;50.194;7.690;2022-10-28T12:58:31;23.30;99.90
18450;DHT22;9354;50.194;7.690;2022-10-28T13:01:02;23.40;99.90
18450;DHT22;9354;50.194;7.690;2022-10-28T13:03:30;23.50;99.90
18450;DHT22;9354;50.194;7.690;2022-10-28T13:06:13;23.60;99.90
18450;DHT22;9354;50.194;7.690;2022-10-28T13:09:04;23.50;99.90
18450;DHT22;9354;50.194;7.690;2022-10-28T13:11:50;23.60;99.90
18450;DHT22;9354;50.194;7.690;2022-10-28T13:14:32;23.60;99.90
18450;DHT22;9354;50.194;7.690;2022-10-28T13:17:21;23.50;99.90
18450;DHT22;9354;50.194;7.690;2022-10-28T13:20:03;23.50;99.90
18450;DHT22;9354;50.194;7.690;2022-10-28T13:22:51;23.50;99.90
18450;DHT22;9354;50.194;7.690;2022-10-28T13:25:34;23.50;99.90
18450;DHT22;9354;50.194;7.690;2022-10-28T13:28:03;23.60;99.90
18450;DHT22;9354;50.194;7.690;2022-10-28T13:30:32;23.60;99.90
18450;DHT22;9354;50.194;7.690;2022-10-28T13:33:03;23.60;99.90
18450;DHT22;9354;50.194;7.690;2022-10-28T13:35:32;23.50;99.90
18450;DHT22;9354;50.194;7.690;2022-10-28T13:38:00;23.40;99.90
18450;DHT22;9354;50.194;7.690;2022-10-28T13:43:56;23.30;99.90
18450;DHT22;9354;50.194;7.690;2022-10-28T13:47:02;23.20;99.90
18450;DHT22;9354;50.194;7.690;2022-10-28T13:49:30;23.10;99.90
18450;DHT22;9354;50.194;7.690;2022-10-28T13:52:00;23.00;99.90
18450;DHT22;9354;50.194;7.690;2022-10-28T13:54:31;22.90;99.90
18450;DHT22;9354;50.194;7.690;2022-10-28T13:57:05;22.80;99.90
18450;DHT22;9354;50.194;7.690;2022-10-28T13:59:50;22.60;99.90
18450;DHT22;9354;50.194;7.690;2022-10-28T14:02:22;22.40;99.90
18450;DHT22;9354;50.194;7.690;2022-10-28T14:04:55;22.20;99.90
18450;DHT22;9354;50.194;7.690;2022-10-28T14:07:25;22.10;99.90
18450;DHT22;9354;50.194;7.690;2022-10-28T14:09:57;22.00;99.90
18450;DHT22;9354;50.194;7.690;2022-10-28T14:12:28;21.90;99.90
18450;DHT22;9354;50.194;7.690;2022-10-28T14:15:22;21.80;99.90
18450;DHT22;9354;50.194;7.690;2022-10-28T14:17:53;21.70;99.90
18450;DHT22;9354;50.194;7.690;2022-10-28T14:20:32;21.60;99.90
18450;DHT22;9354;50.194;7.690;2022-10-28T14:23:00;21.50;99.90
18450;DHT22;9354;50.194;7.690;2022-10-28T14:26:02;21.50;99.90
18450;DHT22;9354;50.194;7.690;2022-10-28T14:28:52;21.40;99.90
18450;DHT22;9354;50.194;7.690;2022-10-28T14:31:41;21.40;99.90
18450;DHT22;9354;50.194;7.690;2022-10-28T14:34:38;21.30;99.90
18450;DHT22;9354;50.194;7.690;2022-10-28T14:37:30;21.20;99.90
18450;DHT22;9354;50.194;7.690;2022-10-28T14:40:14;21.20;99.90
18450;DHT22;9354;50.194;7.690;2022-10-28T14:42:54;21.10;99.90
18450;DHT22;9354;50.194;7.690;2022-10-28T14:45:33;21.00;99.90
18450;DHT22;9354;50.194;7.690;2022-10-28T14:48:24;21.00;99.90
18450;DHT22;9354;50.194;7.690;2022-10-28T14:50:55;21.00;99.90
18450;DHT22;9354;50.194;7.690;2022-10-28T14:53:26;20.90;99.90
18450;DHT22;9354;50.194;7.690;2022-10-28T14:55:58;20.90;99.90
18450;DHT22;9354;50.194;7.690;2022-10-28T14:58:29;20.80;99.90
18450;DHT22;9354;50.194;7.690;2022-10-28T15:01:06;20.80;99.90
18450;DHT22;9354;50.194;7.690;2022-10-28T15:03:41;20.70;99.90
18450;DHT22;9354;50.194;7.690;2022-10-28T15:06:23;20.60;99.90
18450;DHT22;9354;50.194;7.690;2022-10-28T15:08:51;20.60;99.90
18450;DHT22;9354;50.194;7.690;2022-10-28T15:11:20;20.50;99.90
18450;DHT22;9354;50.194;7.690;2022-10-28T15:13:50;20.50;99.90
18450;DHT22;9354;50.194;7.690;2022-10-28T15:16:20;20.40;99.90
18450;DHT22;9354;50.194;7.690;2022-10-28T15:18:50;20.40;99.90
18450;DHT22;9354;50.194;7.690;2022-10-28T15:21:20;20.30;99.90
18450;DHT22;9354;50.194;7.690;2022-10-28T15:23:58;20.30;99.90
18450;DHT22;9354;50.194;7.690;2022-10-28T15:26:26;20.20;99.90
18450;DHT22;9354;50.194;7.690;2022-10-28T15:28:54;20.20;99.90
18450;DHT22;9354;50.194;7.690;2022-10-28T15:31:22;20.10;99.90
18450;DHT22;9354;50.194;7.690;2022-10-28T15:33:51;20.10;99.90
18450;DHT22;9354;50.194;7.690;2022-10-28T15:36:20;20.10;99.90
18450;DHT22;9354;50.194;7.690;2022-10-28T15:38:49;20.00;99.90
18450;DHT22;9354;50.194;7.690;2022-10-28T15:41:37;20.00;99.90
18450;DHT22;9354;50.194;7.690;2022-10-28T15:44:25;19.90;99.90
18450;DHT22;9354;50.194;7.690;2022-10-28T15:46:54;19.90;99.90
18450;DHT22;9354;50.194;7.690;2022-10-28T15:49:32;19.90;99.90
18450;DHT22;9354;50.194;7.690;2022-10-28T15:55:12;19.90;99.90
18450;DHT22;9354;50.194;7.690;2022-10-28T15:57:49;19.80;99.90
18450;DHT22;9354;50.194;7.690;2022-10-28T16:00:20;19.80;99.90
18450;DHT22;9354;50.194;7.690;2022-10-28T16:02:52;19.70;99.90
18450;DHT22;9354;50.194;7.690;2022-10-28T16:05:44;19.80;99.90
18450;DHT22;9354;50.194;7.690;2022-10-28T16:08:23;19.70;99.90
18450;DHT22;9354;50.194;7.690;2022-10-28T16:10:54;19.70;99.90
18450;DHT22;9354;50.194;7.690;2022-10-28T16:13:25;19.70;99.90
18450;DHT22;9354;50.194;7.690;2022-10-28T16:15:56;19.70;99.90
18450;DHT22;9354;50.194;7.690;2022-10-28T16:18:26;19.60;99.90
18450;DHT22;9354;50.194;7.690;2022-10-28T16:20:57;19.60;99.90
18450;DHT22;9354;50.194;7.690;2022-10-28T16:23:31;19.60;99.90
18450;DHT22;9354;50.194;7.690;2022-10-28T16:25:59;19.60;99.90
18450;DHT22;9354;50.194;7.690;2022-10-28T16:28:26;19.60;99.90
18450;DHT22;9354;50.194;7.690;2022-10-28T16:30:56;19.60;99.90
18450;DHT22;9354;50.194;7.690;2022-10-28T16:33:28;19.60;99.90